sensor_id;sensor_type;location;lat;lon;timestamp;pressure;altitude;pressure_sealevel;temperature;humidity
64908;BME280;69061;52.236;5.188;2024-03-02T00:00:38;99691.75;;;9.63;69.12
64908;BME280;69061;52.236;5.188;2024-03-02T00:03:06;99684.16;;;9.68;69.20
64908;BME280;69061;52.236;5.188;2024-03-02T00:05:35;99686.81;;;9.68;69.46
64908;BME280;69061;52.236;5.188;2024-03-02T00:08:04;99692.13;;;9.72;69.43
64908;BME280;69061;52.236;5.188;2024-03-02T00:10:36;99702.72;;;9.72;69.56
64908;BME280;69061;52.236;5.188;2024-03-02T00:13:06;99713.34;;;9.65;70.32
64908;BME280;69061;52.236;5.188;2024-03-02T00:15:46;99714.47;;;9.74;70.03
64908;BME280;69061;52.236;5.188;2024-03-02T00:18:14;99717.13;;;9.71;69.96
64908;BME280;69061;52.236;5.188;2024-03-02T00:20:42;99746.28;;;9.78;69.62
64908;BME280;69061;52.236;5.188;2024-03-02T00:23:10;99749.72;;;9.75;70.61
64908;BME280;69061;52.236;5.188;2024-03-02T00:25:38;99755.78;;;9.72;70.84
64908;BME280;69061;52.236;5.188;2024-03-02T00:28:14;99780.81;;;9.74;70.50
64908;BME280;69061;52.236;5.188;2024-03-02T00:30:58;99797.44;;;9.82;70.96
64908;BME280;69061;52.236;5.188;2024-03-02T00:33:31;99803.16;;;9.73;71.52
64908;BME280;69061;52.236;5.188;2024-03-02T00:35:58;99806.97;;;9.54;73.22
64908;BME280;69061;52.236;5.188;2024-03-02T00:38:25;99788.03;;;9.31;74.46
64908;BME280;69061;52.236;5.188;2024-03-02T00:40:52;99791.06;;;9.18;75.42
64908;BME280;69061;52.236;5.188;2024-03-02T00:43:45;99808.47;;;9.08;76.37
64908;BME280;69061;52.236;5.188;2024-03-02T00:46:16;99812.25;;;9.00;77.37
64908;BME280;69061;52.236;5.188;2024-03-02T00:49:02;99805.41;;;8.88;79.02
64908;BME280;69061;52.236;5.188;2024-03-02T00:51:31;99806.94;;;8.82;78.94
64908;BME280;69061;52.236;5.188;2024-03-02T00:53:59;99805.03;;;8.83;79.60
64908;BME280;69061;52.236;5.188;2024-03-02T00:56:26;99805.41;;;8.85;80.44
64908;BME280;69061;52.236;5.188;2024-03-02T00:58:54;99802.00;;;8.84;80.84
64908;BME280;69061;52.236;5.188;2024-03-02T01:01:21;99809.94;;;8.81;80.88
64908;BME280;69061;52.236;5.188;2024-03-02T01:03:48;99813.75;;;8.80;81.43
64908;BME280;69061;52.236;5.188;2024-03-02T01:06:15;99818.63;;;8.77;81.47
64908;BME280;69061;52.236;5.188;2024-03-02T01:08:42;99821.28;;;8.77;81.79
64908;BME280;69061;52.236;5.188;2024-03-02T01:11:09;99814.84;;;8.68;82.41
64908;BME280;69061;52.236;5.188;2024-03-02T01:13:36;99803.09;;;8.65;82.91
64908;BME280;69061;52.236;5.188;2024-03-02T01:16:05;99802.75;;;8.77;83.15
64908;BME280;69061;52.236;5.188;2024-03-02T01:18:32;99811.81;;;8.69;82.90
64908;BME280;69061;52.236;5.188;2024-03-02T01:20:59;99821.28;;;8.70;82.62
64908;BME280;69061;52.236;5.188;2024-03-02T01:23:25;99824.25;;;8.62;83.14
64908;BME280;69061;52.236;5.188;2024-03-02T01:25:52;99821.97;;;8.56;83.22
64908;BME280;69061;52.236;5.188;2024-03-02T01:28:19;99823.06;;;8.48;83.82
64908;BME280;69061;52.236;5.188;2024-03-02T01:30:47;99822.72;;;8.50;83.85
64908;BME280;69061;52.236;5.188;2024-03-02T01:33:15;99838.50;;;8.35;84.82
64908;BME280;69061;52.236;5.188;2024-03-02T01:35:41;99813.53;;;8.33;85.10
64908;BME280;69061;52.236;5.188;2024-03-02T01:38:08;99819.59;;;8.37;85.21
64908;BME280;69061;52.236;5.188;2024-03-02T01:40:35;99818.47;;;8.41;85.13
64908;BME280;69061;52.236;5.188;2024-03-02T01:43:03;99820.75;;;8.39;85.12
64908;BME280;69061;52.236;5.188;2024-03-02T01:45:30;99824.91;;;8.44;85.27
64908;BME280;69061;52.236;5.188;2024-03-02T01:47:57;99821.19;;;8.45;85.45
64908;BME280;69061;52.236;5.188;2024-03-02T01:50:27;99816.63;;;8.46;85.23
64908;BME280;69061;52.236;5.188;2024-03-02T01:52:54;99814.28;;;8.33;85.17
64908;BME280;69061;52.236;5.188;2024-03-02T01:55:20;99837.00;;;8.41;85.28
64908;BME280;69061;52.236;5.188;2024-03-02T01:57:47;99833.28;;;8.46;85.44
64908;BME280;69061;52.236;5.188;2024-03-02T02:00:15;99844.19;;;8.34;85.23
64908;BME280;69061;52.236;5.188;2024-03-02T02:02:42;99850.22;;;8.34;85.29
64908;BME280;69061;52.236;5.188;2024-03-02T02:05:08;99851.72;;;8.32;85.74
64908;BME280;69061;52.236;5.188;2024-03-02T02:07:37;99840.72;;;8.22;85.92
64908;BME280;69061;52.236;5.188;2024-03-02T02:10:04;99838.50;;;8.28;86.11
64908;BME280;69061;52.236;5.188;2024-03-02T02:12:32;99826.34;;;8.23;86.90
64908;BME280;69061;52.236;5.188;2024-03-02T02:14:58;99835.44;;;8.26;87.24
64908;BME280;69061;52.236;5.188;2024-03-02T02:17:25;99844.50;;;8.21;87.52
64908;BME280;69061;52.236;5.188;2024-03-02T02:19:51;99848.66;;;8.19;87.76
64908;BME280;69061;52.236;5.188;2024-03-02T02:22:19;99862.28;;;8.24;87.49
64908;BME280;69061;52.236;5.188;2024-03-02T02:24:46;99856.53;;;8.08;87.87
64908;BME280;69061;52.236;5.188;2024-03-02T02:27:12;99844.41;;;8.07;87.91
64908;BME280;69061;52.236;5.188;2024-03-02T02:29:40;99827.75;;;8.03;87.95
64908;BME280;69061;52.236;5.188;2024-03-02T02:32:07;99847.41;;;8.02;88.44
64908;BME280;69061;52.236;5.188;2024-03-02T02:34:33;99815.66;;;8.02;88.31
64908;BME280;69061;52.236;5.188;2024-03-02T02:37:00;99833.03;;;7.99;88.67
64908;BME280;69061;52.236;5.188;2024-03-02T02:39:28;99839.88;;;8.04;88.39
64908;BME280;69061;52.236;5.188;2024-03-02T02:41:55;99843.59;;;7.96;88.43
64908;BME280;69061;52.236;5.188;2024-03-02T02:44:21;99854.53;;;7.90;88.64
64908;BME280;69061;52.236;5.188;2024-03-02T02:46:48;99850.75;;;7.91;88.98
64908;BME280;69061;52.236;5.188;2024-03-02T02:49:15;99833.25;;;7.76;89.51
64908;BME280;69061;52.236;5.188;2024-03-02T02:51:42;99855.22;;;7.84;89.17
64908;BME280;69061;52.236;5.188;2024-03-02T02:54:08;99840.44;;;7.79;89.40
64908;BME280;69061;52.236;5.188;2024-03-02T02:56:36;99854.84;;;7.85;89.80
64908;BME280;69061;52.236;5.188;2024-03-02T02:59:03;99862.84;;;7.92;89.40
64908;BME280;69061;52.236;5.188;2024-03-02T03:01:29;99861.28;;;7.84;89.92
64908;BME280;69061;52.236;5.188;2024-03-02T03:03:56;99860.53;;;7.84;90.46
64908;BME280;69061;52.236;5.188;2024-03-02T03:06:22;99863.94;;;7.88;90.08
64908;BME280;69061;52.236;5.188;2024-03-02T03:08:49;99862.78;;;7.85;90.24
64908;BME280;69061;52.236;5.188;2024-03-02T03:11:16;99852.59;;;7.84;90.64
64908;BME280;69061;52.236;5.188;2024-03-02T03:13:44;99859.41;;;7.88;90.43
64908;BME280;69061;52.236;5.188;2024-03-02T03:16:10;99857.84;;;7.80;90.16
64908;BME280;69061;52.236;5.188;2024-03-02T03:18:37;99844.66;;;7.87;89.17
64908;BME280;69061;52.236;5.188;2024-03-02T03:21:03;99857.50;;;7.85;89.64
64908;BME280;69061;52.236;5.188;2024-03-02T03:23:30;99861.69;;;7.86;89.50
64908;BME280;69061;52.236;5.188;2024-03-02T03:25:57;99870.03;;;7.92;89.24
64908;BME280;69061;52.236;5.188;2024-03-02T03:28:23;99873.72;;;7.80;89.57
64908;BME280;69061;52.236;5.188;2024-03-02T03:30:51;99865.41;;;7.78;89.81
64908;BME280;69061;52.236;5.188;2024-03-02T03:33:17;99864.28;;;7.83;90.01
64908;BME280;69061;52.236;5.188;2024-03-02T03:35:44;99864.28;;;7.83;90.25
64908;BME280;69061;52.236;5.188;2024-03-02T03:38:11;99869.25;;;7.88;89.20
64908;BME280;69061;52.236;5.188;2024-03-02T03:40:38;99878.28;;;7.87;89.04
64908;BME280;69061;52.236;5.188;2024-03-02T03:43:04;99878.63;;;7.78;89.22
64908;BME280;69061;52.236;5.188;2024-03-02T03:45:31;99871.09;;;7.84;88.99
64908;BME280;69061;52.236;5.188;2024-03-02T03:47:59;99878.25;;;7.80;89.09
64908;BME280;69061;52.236;5.188;2024-03-02T03:50:25;99870.31;;;7.83;89.13
64908;BME280;69061;52.236;5.188;2024-03-02T03:52:52;99881.31;;;7.85;88.49
64908;BME280;69061;52.236;5.188;2024-03-02T03:55:18;99884.00;;;7.89;88.17
64908;BME280;69061;52.236;5.188;2024-03-02T03:57:45;99894.91;;;7.87;88.32
64908;BME280;69061;52.236;5.188;2024-03-02T04:00:12;99885.91;;;7.92;88.13
64908;BME280;69061;52.236;5.188;2024-03-02T04:02:39;99888.16;;;7.93;87.55
64908;BME280;69061;52.236;5.188;2024-03-02T04:05:07;99886.28;;;7.94;87.34
64908;BME280;69061;52.236;5.188;2024-03-02T04:07:36;99884.38;;;7.91;87.19
64908;BME280;69061;52.236;5.188;2024-03-02T04:10:07;99896.50;;;7.96;87.26
64908;BME280;69061;52.236;5.188;2024-03-02T04:12:35;99895.41;;;8.00;87.42
64908;BME280;69061;52.236;5.188;2024-03-02T04:15:02;99893.50;;;8.01;87.58
64908;BME280;69061;52.236;5.188;2024-03-02T04:17:29;99895.44;;;8.04;87.27
64908;BME280;69061;52.236;5.188;2024-03-02T04:19:57;99893.53;;;8.04;87.04
64908;BME280;69061;52.236;5.188;2024-03-02T04:22:25;99909.47;;;8.12;87.30
64908;BME280;69061;52.236;5.188;2024-03-02T04:24:51;99895.06;;;8.09;86.68
64908;BME280;69061;52.236;5.188;2024-03-02T04:27:18;99895.09;;;8.13;86.26
64908;BME280;69061;52.236;5.188;2024-03-02T04:29:45;99894.34;;;8.16;85.97
64908;BME280;69061;52.236;5.188;2024-03-02T04:32:11;99898.88;;;8.08;85.88
64908;BME280;69061;52.236;5.188;2024-03-02T04:34:38;99898.47;;;8.06;86.02
64908;BME280;69061;52.236;5.188;2024-03-02T04:37:04;99899.19;;;8.03;85.85
64908;BME280;69061;52.236;5.188;2024-03-02T04:39:34;99899.19;;;8.03;85.80
64908;BME280;69061;52.236;5.188;2024-03-02T04:42:00;99901.09;;;8.06;85.51
64908;BME280;69061;52.236;5.188;2024-03-02T04:44:28;99898.38;;;7.95;85.69
64908;BME280;69061;52.236;5.188;2024-03-02T04:46:54;99900.69;;;8.00;86.01
64908;BME280;69061;52.236;5.188;2024-03-02T04:49:21;99908.28;;;8.05;85.66
64908;BME280;69061;52.236;5.188;2024-03-02T04:51:47;99913.19;;;8.00;85.69
64908;BME280;69061;52.236;5.188;2024-03-02T04:54:14;99915.81;;;8.00;85.36
64908;BME280;69061;52.236;5.188;2024-03-02T04:56:42;99916.16;;;7.95;85.67
64908;BME280;69061;52.236;5.188;2024-03-02T04:59:14;99916.09;;;7.87;86.02
64908;BME280;69061;52.236;5.188;2024-03-02T05:01:41;99918.03;;;7.94;85.55
64908;BME280;69061;52.236;5.188;2024-03-02T05:04:07;99928.19;;;7.88;85.90
64908;BME280;69061;52.236;5.188;2024-03-02T05:06:37;99929.38;;;7.95;85.68
64908;BME280;69061;52.236;5.188;2024-03-02T05:09:03;99937.25;;;7.87;85.99
64908;BME280;69061;52.236;5.188;2024-03-02T05:11:31;99933.47;;;7.88;85.55
64908;BME280;69061;52.236;5.188;2024-03-02T05:14:36;99930.47;;;7.86;85.75
64908;BME280;69061;52.236;5.188;2024-03-02T05:17:02;99928.94;;;7.85;85.88
64908;BME280;69061;52.236;5.188;2024-03-02T05:19:29;99926.28;;;7.85;85.87
64908;BME280;69061;52.236;5.188;2024-03-02T05:21:55;99933.84;;;7.87;85.63
64908;BME280;69061;52.236;5.188;2024-03-02T05:24:22;99936.91;;;7.89;84.93
64908;BME280;69061;52.236;5.188;2024-03-02T05:26:48;99933.81;;;7.83;84.65
64908;BME280;69061;52.236;5.188;2024-03-02T05:29:15;99938.66;;;7.74;85.71
64908;BME280;69061;52.236;5.188;2024-03-02T05:31:43;99939.41;;;7.74;85.78
64908;BME280;69061;52.236;5.188;2024-03-02T05:34:10;99935.28;;;7.77;85.65
64908;BME280;69061;52.236;5.188;2024-03-02T05:36:36;99931.34;;;7.56;86.12
64908;BME280;69061;52.236;5.188;2024-03-02T05:39:04;99941.22;;;7.67;85.68
64908;BME280;69061;52.236;5.188;2024-03-02T05:41:34;99944.66;;;7.67;85.78
64908;BME280;69061;52.236;5.188;2024-03-02T05:44:00;99948.00;;;7.64;85.36
64908;BME280;69061;52.236;5.188;2024-03-02T05:46:27;99953.28;;;7.64;84.69
64908;BME280;69061;52.236;5.188;2024-03-02T05:48:55;99943.03;;;7.55;84.57
64908;BME280;69061;52.236;5.188;2024-03-02T05:51:21;99956.25;;;7.55;84.80
64908;BME280;69061;52.236;5.188;2024-03-02T05:53:48;99952.88;;;7.58;84.65
64908;BME280;69061;52.236;5.188;2024-03-02T05:56:14;99948.25;;;7.48;84.78
64908;BME280;69061;52.236;5.188;2024-03-02T05:58:42;99951.28;;;7.50;85.07
64908;BME280;69061;52.236;5.188;2024-03-02T06:01:23;99959.56;;;7.49;84.92
64908;BME280;69061;52.236;5.188;2024-03-02T06:03:55;99959.22;;;7.50;84.66
64908;BME280;69061;52.236;5.188;2024-03-02T06:06:24;99963.78;;;7.53;84.62
64908;BME280;69061;52.236;5.188;2024-03-02T06:08:51;99971.00;;;7.56;84.46
64908;BME280;69061;52.236;5.188;2024-03-02T06:11:19;99961.91;;;7.54;84.10
64908;BME280;69061;52.236;5.188;2024-03-02T06:13:46;99963.06;;;7.56;84.09
64908;BME280;69061;52.236;5.188;2024-03-02T06:16:12;99959.31;;;7.61;83.02
64908;BME280;69061;52.236;5.188;2024-03-02T06:18:39;99967.63;;;7.59;82.68
64908;BME280;69061;52.236;5.188;2024-03-02T06:21:07;99963.41;;;7.55;82.93
64908;BME280;69061;52.236;5.188;2024-03-02T06:23:33;99975.56;;;7.59;83.14
64908;BME280;69061;52.236;5.188;2024-03-02T06:26:00;99964.94;;;7.56;82.99
64908;BME280;69061;52.236;5.188;2024-03-02T06:28:27;99972.16;;;7.63;82.57
64908;BME280;69061;52.236;5.188;2024-03-02T06:30:54;99974.44;;;7.61;82.82
64908;BME280;69061;52.236;5.188;2024-03-02T06:33:20;99984.59;;;7.58;82.98
64908;BME280;69061;52.236;5.188;2024-03-02T06:35:47;99982.44;;;7.68;82.69
64908;BME280;69061;52.236;5.188;2024-03-02T06:38:15;99981.63;;;7.64;82.67
64908;BME280;69061;52.236;5.188;2024-03-02T06:40:42;99986.56;;;7.65;82.75
64908;BME280;69061;52.236;5.188;2024-03-02T06:43:09;99987.31;;;7.66;82.88
64908;BME280;69061;52.236;5.188;2024-03-02T06:45:35;99987.31;;;7.66;83.09
64908;BME280;69061;52.236;5.188;2024-03-02T06:48:02;99990.78;;;7.70;82.83
64908;BME280;69061;52.236;5.188;2024-03-02T06:50:28;100000.31;;;7.78;82.74
64908;BME280;69061;52.236;5.188;2024-03-02T06:52:55;99995.34;;;7.76;82.69
64908;BME280;69061;52.236;5.188;2024-03-02T06:55:24;99995.44;;;7.84;81.63
64908;BME280;69061;52.236;5.188;2024-03-02T06:57:50;99990.09;;;7.80;81.67
64908;BME280;69061;52.236;5.188;2024-03-02T07:00:18;99998.09;;;7.84;81.53
64908;BME280;69061;52.236;5.188;2024-03-02T07:02:45;99990.53;;;7.86;82.07
64908;BME280;69061;52.236;5.188;2024-03-02T07:05:13;99995.16;;;7.96;81.38
64908;BME280;69061;52.236;5.188;2024-03-02T07:07:39;99982.22;;;7.87;81.04
64908;BME280;69061;52.236;5.188;2024-03-02T07:10:06;99998.56;;;7.97;80.09
64908;BME280;69061;52.236;5.188;2024-03-02T07:12:35;100001.19;;;7.93;80.95
64908;BME280;69061;52.236;5.188;2024-03-02T07:15:02;99994.13;;;8.08;81.15
64908;BME280;69061;52.236;5.188;2024-03-02T07:17:50;99968.41;;;8.08;79.89
64908;BME280;69061;52.236;5.188;2024-03-02T07:20:16;99989.78;;;8.34;81.13
64908;BME280;69061;52.236;5.188;2024-03-02T07:22:43;99991.47;;;8.53;80.00
64908;BME280;69061;52.236;5.188;2024-03-02T07:25:09;100005.22;;;8.76;79.20
64908;BME280;69061;52.236;5.188;2024-03-02T07:27:37;99995.47;;;8.95;77.67
64908;BME280;69061;52.236;5.188;2024-03-02T07:30:05;99997.78;;;9.07;77.21
64908;BME280;69061;52.236;5.188;2024-03-02T07:32:32;100005.47;;;9.27;76.84
64908;BME280;69061;52.236;5.188;2024-03-02T07:34:58;100005.50;;;9.45;75.43
64908;BME280;69061;52.236;5.188;2024-03-02T07:37:26;100011.59;;;9.49;74.55
64908;BME280;69061;52.236;5.188;2024-03-02T07:39:53;100013.09;;;9.54;73.15
64908;BME280;69061;52.236;5.188;2024-03-02T07:42:20;100002.88;;;9.52;73.02
64908;BME280;69061;52.236;5.188;2024-03-02T07:44:48;100004.75;;;9.48;72.86
64908;BME280;69061;52.236;5.188;2024-03-02T07:47:15;100022.97;;;9.53;72.38
64908;BME280;69061;52.236;5.188;2024-03-02T07:49:42;100019.16;;;9.51;72.46
64908;BME280;69061;52.236;5.188;2024-03-02T07:52:08;100022.19;;;9.49;71.72
64908;BME280;69061;52.236;5.188;2024-03-02T07:54:35;100025.94;;;9.34;71.20
64908;BME280;69061;52.236;5.188;2024-03-02T07:57:01;100026.59;;;9.13;72.20
64908;BME280;69061;52.236;5.188;2024-03-02T07:59:28;100025.09;;;9.15;71.85
64908;BME280;69061;52.236;5.188;2024-03-02T08:01:56;100031.03;;;8.87;71.67
64908;BME280;69061;52.236;5.188;2024-03-02T08:04:23;100034.81;;;8.89;72.38
64908;BME280;69061;52.236;5.188;2024-03-02T08:06:50;100034.78;;;8.86;72.68
64908;BME280;69061;52.236;5.188;2024-03-02T08:09:16;100043.16;;;8.88;72.63
64908;BME280;69061;52.236;5.188;2024-03-02T08:11:43;100037.09;;;8.91;73.17
64908;BME280;69061;52.236;5.188;2024-03-02T08:14:09;100041.28;;;8.96;72.55
64908;BME280;69061;52.236;5.188;2024-03-02T08:16:36;100041.72;;;9.05;72.44
64908;BME280;69061;52.236;5.188;2024-03-02T08:19:04;100038.34;;;9.12;72.21
64908;BME280;69061;52.236;5.188;2024-03-02T08:21:31;100034.28;;;9.39;71.50
64908;BME280;69061;52.236;5.188;2024-03-02T08:24:02;100042.72;;;9.70;70.37
64908;BME280;69061;52.236;5.188;2024-03-02T08:26:28;100038.97;;;9.97;69.53
64908;BME280;69061;52.236;5.188;2024-03-02T08:28:57;100039.41;;;10.38;69.82
64908;BME280;69061;52.236;5.188;2024-03-02T08:31:23;100039.75;;;10.76;67.83
64908;BME280;69061;52.236;5.188;2024-03-02T08:33:50;100038.19;;;10.93;67.68
64908;BME280;69061;52.236;5.188;2024-03-02T08:36:18;100032.47;;;11.06;65.69
64908;BME280;69061;52.236;5.188;2024-03-02T08:38:45;100024.41;;;11.20;65.59
64908;BME280;69061;52.236;5.188;2024-03-02T08:41:11;100028.19;;;11.30;64.40
64908;BME280;69061;52.236;5.188;2024-03-02T08:43:40;100033.06;;;11.46;64.18
64908;BME280;69061;52.236;5.188;2024-03-02T08:46:07;100036.47;;;11.50;63.67
64908;BME280;69061;52.236;5.188;2024-03-02T08:48:34;100027.69;;;11.57;63.65
64908;BME280;69061;52.236;5.188;2024-03-02T08:51:01;100027.59;;;11.75;62.98
64908;BME280;69061;52.236;5.188;2024-03-02T08:53:31;100034.00;;;11.81;61.97
64908;BME280;69061;52.236;5.188;2024-03-02T08:55:57;100029.38;;;11.92;61.19
64908;BME280;69061;52.236;5.188;2024-03-02T08:58:24;100030.53;;;11.88;61.27
64908;BME280;69061;52.236;5.188;2024-03-02T09:00:51;100029.31;;;12.03;61.24
64908;BME280;69061;52.236;5.188;2024-03-02T09:03:17;100038.63;;;12.29;60.65
64908;BME280;69061;52.236;5.188;2024-03-02T09:05:44;100041.56;;;12.42;59.26
64908;BME280;69061;52.236;5.188;2024-03-02T09:08:10;100034.63;;;12.52;58.92
64908;BME280;69061;52.236;5.188;2024-03-02T09:10:38;100035.00;;;12.54;59.13
64908;BME280;69061;52.236;5.188;2024-03-02T09:13:05;100045.50;;;12.72;58.62
64908;BME280;69061;52.236;5.188;2024-03-02T09:15:32;100057.50;;;12.88;58.14
64908;BME280;69061;52.236;5.188;2024-03-02T09:18:03;100056.06;;;12.79;57.50
64908;BME280;69061;52.236;5.188;2024-03-02T09:20:29;100060.16;;;12.91;57.76
64908;BME280;69061;52.236;5.188;2024-03-02T09:22:56;100060.78;;;13.03;57.39
64908;BME280;69061;52.236;5.188;2024-03-02T09:25:22;100059.88;;;13.17;57.02
64908;BME280;69061;52.236;5.188;2024-03-02T09:27:50;100054.44;;;13.27;56.45
64908;BME280;69061;52.236;5.188;2024-03-02T09:30:17;100059.59;;;13.42;56.54
64908;BME280;69061;52.236;5.188;2024-03-02T09:32:43;100060.72;;;13.44;55.97
64908;BME280;69061;52.236;5.188;2024-03-02T09:35:10;100072.50;;;13.47;55.28
64908;BME280;69061;52.236;5.188;2024-03-02T09:37:37;100051.06;;;13.54;54.96
64908;BME280;69061;52.236;5.188;2024-03-02T09:40:05;100064.41;;;13.54;54.63
64908;BME280;69061;52.236;5.188;2024-03-02T09:42:32;100064.63;;;13.32;54.23
64908;BME280;69061;52.236;5.188;2024-03-02T09:45:00;100071.78;;;13.43;54.61
64908;BME280;69061;52.236;5.188;2024-03-02T09:47:26;100060.19;;;13.22;52.68
64908;BME280;69061;52.236;5.188;2024-03-02T09:49:53;100067.97;;;13.09;53.63
64908;BME280;69061;52.236;5.188;2024-03-02T09:52:21;100069.97;;;13.02;53.85
64908;BME280;69061;52.236;5.188;2024-03-02T09:54:48;100075.84;;;12.82;53.77
64908;BME280;69061;52.236;5.188;2024-03-02T09:57:15;100056.84;;;12.80;54.47
64908;BME280;69061;52.236;5.188;2024-03-02T09:59:42;100062.69;;;13.06;54.13
64908;BME280;69061;52.236;5.188;2024-03-02T10:02:10;100070.59;;;13.13;53.68
64908;BME280;69061;52.236;5.188;2024-03-02T10:04:36;100052.41;;;13.39;53.82
64908;BME280;69061;52.236;5.188;2024-03-02T10:07:13;100059.88;;;13.51;52.58
64908;BME280;69061;52.236;5.188;2024-03-02T10:09:40;100064.63;;;13.67;51.94
64908;BME280;69061;52.236;5.188;2024-03-02T10:12:08;100064.06;;;13.79;50.95
64908;BME280;69061;52.236;5.188;2024-03-02T10:14:35;100072.34;;;13.89;50.43
64908;BME280;69061;52.236;5.188;2024-03-02T10:17:02;100049.66;;;14.01;50.02
64908;BME280;69061;52.236;5.188;2024-03-02T10:19:31;100053.56;;;14.20;49.95
64908;BME280;69061;52.236;5.188;2024-03-02T10:22:01;100058.84;;;14.23;49.19
64908;BME280;69061;52.236;5.188;2024-03-02T10:24:35;100049.09;;;14.13;48.76
64908;BME280;69061;52.236;5.188;2024-03-02T10:27:06;100045.72;;;14.09;49.10
64908;BME280;69061;52.236;5.188;2024-03-02T10:29:37;100063.47;;;14.19;48.69
64908;BME280;69061;52.236;5.188;2024-03-02T10:32:04;100054.19;;;14.27;48.93
64908;BME280;69061;52.236;5.188;2024-03-02T10:34:33;100061.34;;;14.34;47.80
64908;BME280;69061;52.236;5.188;2024-03-02T10:36:59;100043.81;;;14.33;46.89
64908;BME280;69061;52.236;5.188;2024-03-02T10:39:26;100048.78;;;14.31;48.04
64908;BME280;69061;52.236;5.188;2024-03-02T10:41:55;100041.31;;;14.22;47.57
64908;BME280;69061;52.236;5.188;2024-03-02T10:44:23;100043.97;;;14.46;48.26
64908;BME280;69061;52.236;5.188;2024-03-02T10:46:50;100048.91;;;14.71;47.92
64908;BME280;69061;52.236;5.188;2024-03-02T10:49:18;100033.00;;;14.84;47.41
64908;BME280;69061;52.236;5.188;2024-03-02T10:51:46;100033.22;;;14.93;47.58
64908;BME280;69061;52.236;5.188;2024-03-02T10:54:13;100043.91;;;14.93;46.45
64908;BME280;69061;52.236;5.188;2024-03-02T10:56:41;100037.81;;;14.73;46.97
64908;BME280;69061;52.236;5.188;2024-03-02T10:59:17;100037.44;;;14.71;47.46
64908;BME280;69061;52.236;5.188;2024-03-02T11:01:48;100023.25;;;14.74;46.07
64908;BME280;69061;52.236;5.188;2024-03-02T11:04:16;100024.47;;;14.69;45.80
64908;BME280;69061;52.236;5.188;2024-03-02T11:06:49;100023.78;;;14.65;45.76
64908;BME280;69061;52.236;5.188;2024-03-02T11:09:18;100018.88;;;14.40;45.00
64908;BME280;69061;52.236;5.188;2024-03-02T11:11:51;100025.84;;;14.34;45.95
64908;BME280;69061;52.236;5.188;2024-03-02T11:14:24;100022.13;;;14.27;45.94
64908;BME280;69061;52.236;5.188;2024-03-02T11:16:51;100030.63;;;14.22;45.97
64908;BME280;69061;52.236;5.188;2024-03-02T11:19:19;100027.63;;;14.40;46.39
64908;BME280;69061;52.236;5.188;2024-03-02T11:21:46;100034.78;;;14.47;46.11
64908;BME280;69061;52.236;5.188;2024-03-02T11:24:30;100026.34;;;14.48;45.30
64908;BME280;69061;52.236;5.188;2024-03-02T11:27:00;100031.25;;;14.30;45.96
64908;BME280;69061;52.236;5.188;2024-03-02T11:29:43;100028.78;;;14.39;46.40
64908;BME280;69061;52.236;5.188;2024-03-02T11:32:17;100022.38;;;14.57;46.22
64908;BME280;69061;52.236;5.188;2024-03-02T11:34:46;100025.75;;;14.61;45.58
64908;BME280;69061;52.236;5.188;2024-03-02T11:37:13;100023.00;;;14.44;45.82
64908;BME280;69061;52.236;5.188;2024-03-02T11:39:43;100021.69;;;14.53;46.28
64908;BME280;69061;52.236;5.188;2024-03-02T11:42:11;100017.72;;;14.61;45.69
64908;BME280;69061;52.236;5.188;2024-03-02T11:44:41;100025.94;;;14.74;45.65
64908;BME280;69061;52.236;5.188;2024-03-02T11:47:11;100023.94;;;14.78;45.55
64908;BME280;69061;52.236;5.188;2024-03-02T11:49:41;100020.31;;;14.88;45.41
64908;BME280;69061;52.236;5.188;2024-03-02T11:52:09;100012.22;;;14.92;45.13
64908;BME280;69061;52.236;5.188;2024-03-02T11:54:36;100015.78;;;15.05;44.97
64908;BME280;69061;52.236;5.188;2024-03-02T11:57:06;100007.22;;;14.94;44.73
64908;BME280;69061;52.236;5.188;2024-03-02T11:59:33;100008.44;;;14.89;44.58
64908;BME280;69061;52.236;5.188;2024-03-02T12:02:00;100020.38;;;14.85;44.80
64908;BME280;69061;52.236;5.188;2024-03-02T12:04:29;100007.59;;;14.92;44.72
64908;BME280;69061;52.236;5.188;2024-03-02T12:06:56;100012.63;;;14.90;44.41
64908;BME280;69061;52.236;5.188;2024-03-02T12:09:25;100006.19;;;14.88;44.55
64908;BME280;69061;52.236;5.188;2024-03-02T12:12:01;100008.59;;;14.82;44.47
64908;BME280;69061;52.236;5.188;2024-03-02T12:14:30;100006.66;;;14.82;44.36
64908;BME280;69061;52.236;5.188;2024-03-02T12:16:57;99990.56;;;14.86;43.42
64908;BME280;69061;52.236;5.188;2024-03-02T12:19:24;99987.03;;;14.69;44.09
64908;BME280;69061;52.236;5.188;2024-03-02T12:21:51;99978.81;;;14.80;44.63
64908;BME280;69061;52.236;5.188;2024-03-02T12:24:20;99985.69;;;14.81;44.25
64908;BME280;69061;52.236;5.188;2024-03-02T12:26:47;99967.63;;;14.85;44.29
64908;BME280;69061;52.236;5.188;2024-03-02T12:29:14;99969.56;;;15.05;43.92
64908;BME280;69061;52.236;5.188;2024-03-02T12:31:43;99958.44;;;15.06;43.94
64908;BME280;69061;52.236;5.188;2024-03-02T12:34:11;99961.13;;;15.23;43.30
64908;BME280;69061;52.236;5.188;2024-03-02T12:36:39;99957.31;;;15.40;43.56
64908;BME280;69061;52.236;5.188;2024-03-02T12:39:07;99956.66;;;15.53;43.01
64908;BME280;69061;52.236;5.188;2024-03-02T12:41:36;99963.44;;;15.74;43.02
64908;BME280;69061;52.236;5.188;2024-03-02T12:44:02;99954.09;;;15.82;42.23
64908;BME280;69061;52.236;5.188;2024-03-02T12:46:29;99956.94;;;15.91;41.72
64908;BME280;69061;52.236;5.188;2024-03-02T12:48:57;99941.41;;;15.99;41.96
64908;BME280;69061;52.236;5.188;2024-03-02T12:51:24;99946.19;;;16.08;41.56
64908;BME280;69061;52.236;5.188;2024-03-02T12:53:53;99939.97;;;16.11;41.00
64908;BME280;69061;52.236;5.188;2024-03-02T12:56:20;99941.47;;;16.12;40.67
64908;BME280;69061;52.236;5.188;2024-03-02T12:58:47;99942.16;;;16.16;41.14
64908;BME280;69061;52.236;5.188;2024-03-02T13:01:14;99942.47;;;16.18;40.31
64908;BME280;69061;52.236;5.188;2024-03-02T13:03:44;99941.91;;;16.10;40.06
64908;BME280;69061;52.236;5.188;2024-03-02T13:06:12;99946.41;;;16.13;40.04